createdAt,value
2024-03-01T00:49:04.037Z,16
2024-03-01T00:50:05.919Z,19
2024-03-01T00:52:03.812Z,16
2024-03-01T00:53:03.670Z,17
2024-03-01T00:55:04.325Z,19
2024-03-01T00:56:03.222Z,16
2024-03-01T00:58:03.101Z,17
2024-03-01T00:59:03.149Z,17
2024-03-01T01:00:03.740Z,18
2024-03-01T01:01:04.374Z,19
2024-03-01T01:03:02.988Z,17
2024-03-01T01:04:03.038Z,17
2024-03-01T01:05:03.440Z,17
2024-03-01T01:06:03.179Z,17
2024-03-01T01:07:03.316Z,16
2024-03-01T01:08:03.149Z,16
2024-03-01T01:09:03.052Z,17
2024-03-01T01:10:03.740Z,17
2024-03-01T01:11:03.919Z,18
2024-03-01T01:12:03.720Z,17
2024-03-01T01:13:04.164Z,17
2024-03-01T01:14:02.908Z,18
2024-03-01T01:15:04.595Z,17
2024-03-01T01:17:04.103Z,17
2024-03-01T01:19:03.364Z,19
2024-03-01T01:20:05.340Z,17
2024-03-01T01:22:03.563Z,18
2024-03-01T01:23:03.259Z,18
2024-03-01T01:24:03.109Z,18
2024-03-01T01:25:04.026Z,18
2024-03-01T01:27:03.686Z,16
2024-03-01T01:28:04.083Z,18
2024-03-01T01:30:04.232Z,18
2024-03-01T01:32:03.796Z,18
2024-03-01T01:33:03.922Z,17
2024-03-01T01:34:04.289Z,18
2024-03-01T01:35:03.602Z,18
2024-03-01T01:37:03.564Z,18
2024-03-01T01:39:03.174Z,17
2024-03-01T01:40:03.931Z,19
2024-03-01T01:41:03.762Z,17
2024-03-01T01:42:03.426Z,17
2024-03-01T01:43:03.483Z,17
2024-03-01T01:44:03.470Z,17
2024-03-01T01:45:03.852Z,17
2024-03-01T01:46:03.764Z,17
2024-03-01T01:47:03.541Z,19
2024-03-01T01:48:04.526Z,17
2024-03-01T01:49:03.638Z,18
2024-03-01T01:50:04.247Z,16
2024-03-01T01:52:03.633Z,17
2024-03-01T01:53:32.128Z,16
2024-03-01T01:55:04.857Z,16
2024-03-01T01:56:03.633Z,15
2024-03-01T01:57:03.686Z,16
2024-03-01T01:58:03.559Z,16
2024-03-01T01:59:03.595Z,15
2024-03-01T02:00:04.085Z,15
2024-03-01T02:01:03.459Z,14
2024-03-01T02:02:04.019Z,17
2024-03-01T02:04:04.381Z,18
2024-03-01T02:05:03.563Z,18
2024-03-01T02:06:03.323Z,16
2024-03-01T02:07:03.495Z,17
2024-03-01T02:08:03.195Z,17
2024-03-01T02:09:03.146Z,16
2024-03-01T02:10:04.351Z,16
2024-03-01T02:24:03.727Z,19
2024-03-01T02:25:04.377Z,18
2024-03-01T02:27:03.914Z,18
2024-03-01T02:28:04.021Z,19
2024-03-01T02:30:04.194Z,18
2024-03-01T02:32:03.803Z,17
2024-03-01T02:33:04.199Z,18
2024-03-01T02:35:03.344Z,19
2024-03-01T02:36:03.135Z,19
2024-03-01T02:37:03.533Z,20
2024-03-01T02:38:03.571Z,19
2024-03-01T02:39:03.717Z,19
2024-03-01T02:40:04.987Z,19
2024-03-01T02:42:03.916Z,18
2024-03-01T02:43:03.860Z,18
2024-03-01T02:44:03.846Z,19
2024-03-01T02:45:04.314Z,18
2024-03-01T02:47:03.023Z,21
2024-03-01T02:48:03.373Z,19
2024-03-01T02:49:03.926Z,19
2024-03-01T02:50:03.283Z,19
2024-03-01T02:51:03.059Z,19
2024-03-01T02:52:03.343Z,18
2024-03-01T02:53:03.361Z,18
2024-03-01T02:54:03.290Z,18
2024-03-01T02:55:03.874Z,18
2024-03-01T02:56:04.098Z,18
2024-03-01T02:57:03.347Z,19
2024-03-01T02:58:04.025Z,18
2024-03-01T03:00:08.003Z,19
2024-03-01T03:02:03.777Z,18
2024-03-01T03:03:03.654Z,18
2024-03-01T03:04:03.744Z,19
2024-03-01T03:05:04.145Z,18
2024-03-01T03:07:12.773Z,18
2024-03-01T03:08:03.975Z,19
2024-03-01T03:10:04.601Z,19
2024-03-01T03:12:03.603Z,18
2024-03-01T03:13:03.812Z,18
2024-03-01T03:15:04.169Z,18
2024-03-01T03:17:03.748Z,18
2024-03-01T03:19:04.128Z,18
2024-03-01T03:20:03.608Z,18
2024-03-01T03:22:03.582Z,18
2024-03-01T03:23:03.803Z,18
2024-03-01T03:24:03.505Z,21
2024-03-01T03:25:04.349Z,18
2024-03-01T03:27:02.929Z,18
2024-03-01T03:28:04.432Z,19
2024-03-01T03:29:03.895Z,18
2024-03-01T03:30:05.394Z,18
2024-03-01T03:32:03.085Z,18
2024-03-01T03:33:03.181Z,19
2024-03-01T03:34:03.397Z,19
2024-03-01T03:35:03.681Z,17
2024-03-01T03:36:03.525Z,17
2024-03-01T03:37:03.889Z,18
2024-03-01T03:38:04.040Z,18
2024-03-01T03:40:03.806Z,17
2024-03-01T03:41:03.788Z,18
2024-03-01T03:42:03.704Z,18
2024-03-01T03:43:03.820Z,17
2024-03-01T03:44:03.714Z,18
2024-03-01T03:45:04.066Z,18
2024-03-01T03:47:03.724Z,18
2024-03-01T03:48:03.607Z,17
2024-03-01T03:49:03.710Z,17
2024-03-01T03:50:04.066Z,17
2024-03-01T03:52:03.789Z,17
2024-03-01T03:53:03.426Z,17
2024-03-01T03:55:04.635Z,18
2024-03-01T03:57:03.537Z,17
2024-03-01T03:58:03.430Z,17
2024-03-01T03:59:03.646Z,18
2024-03-01T04:00:05.343Z,17
2024-03-01T04:02:04.005Z,18
2024-03-01T04:04:04.203Z,17
2024-03-01T04:05:03.674Z,17
2024-03-01T04:06:03.526Z,17
2024-03-01T04:07:04.092Z,16
2024-03-01T04:09:03.702Z,16
2024-03-01T04:10:05.325Z,16
2024-03-01T04:12:03.089Z,16
2024-03-01T04:13:02.874Z,15
2024-03-01T04:14:03.803Z,15
2024-03-01T04:15:06.659Z,15
2024-03-01T04:17:03.822Z,17
2024-03-01T04:18:04.057Z,17
2024-03-01T04:20:04.726Z,17
2024-03-01T04:22:03.811Z,18
2024-03-01T04:23:03.791Z,17
2024-03-01T04:24:03.609Z,17
2024-03-01T04:25:04.843Z,15
2024-03-01T04:27:03.522Z,16
2024-03-01T04:28:03.444Z,17
2024-03-01T04:29:03.454Z,18
2024-03-01T04:30:04.131Z,17
2024-03-01T04:32:04.089Z,16
2024-03-01T04:34:03.564Z,16
2024-03-01T04:35:04.015Z,17
2024-03-01T04:37:04.038Z,17
2024-03-01T04:39:03.922Z,17
2024-03-01T04:40:04.035Z,15
2024-03-01T04:42:03.652Z,15
2024-03-01T04:43:03.512Z,17
2024-03-01T04:44:03.428Z,16
2024-03-01T04:45:03.927Z,15
2024-03-01T04:46:04.443Z,16
2024-03-01T04:48:04.048Z,16
2024-03-01T04:50:04.023Z,15
2024-03-01T04:52:05.214Z,14
2024-03-01T04:54:03.723Z,15
2024-03-01T04:55:04.437Z,16
2024-03-01T04:57:02.901Z,15
2024-03-01T04:58:04.071Z,16
2024-03-01T05:00:08.604Z,15
2024-03-01T05:02:05.230Z,16
2024-03-01T05:03:03.921Z,16
2024-03-01T05:04:06.016Z,16
2024-03-01T05:05:06.127Z,15
2024-03-01T05:07:04.989Z,14
2024-03-01T05:09:04.316Z,15
2024-03-01T05:10:04.872Z,15
2024-03-01T05:11:10.596Z,15
2024-03-01T05:13:04.092Z,16
2024-03-01T05:15:04.799Z,17
2024-03-01T05:16:04.671Z,15
2024-03-01T05:19:03.836Z,16
2024-03-01T05:20:04.835Z,15
2024-03-01T05:21:04.408Z,15
2024-03-01T05:22:05.379Z,16
2024-03-01T05:24:03.109Z,14
2024-03-01T05:25:06.527Z,15
2024-03-01T05:27:03.606Z,16
2024-03-01T05:28:03.929Z,16
2024-03-01T05:29:03.934Z,17
2024-03-01T05:30:04.169Z,16
2024-03-01T05:32:03.362Z,16
2024-03-01T05:33:03.576Z,16
2024-03-01T05:34:03.712Z,16
2024-03-01T05:35:04.295Z,17
2024-03-01T05:36:03.705Z,16
2024-03-01T05:37:03.633Z,17
2024-03-01T05:38:03.698Z,16
2024-03-01T05:39:04.709Z,17
2024-03-01T05:40:04.809Z,17
2024-03-01T05:42:03.805Z,17
2024-03-01T05:43:03.633Z,16
2024-03-01T05:44:03.483Z,15
2024-03-01T05:45:03.799Z,15
2024-03-01T05:46:03.715Z,17
2024-03-01T05:47:03.412Z,17
2024-03-01T05:48:03.363Z,17
2024-03-01T05:49:03.567Z,19
2024-03-01T05:50:04.296Z,18
2024-03-01T05:52:04.349Z,16
2024-03-01T05:54:03.531Z,16
2024-03-01T05:55:03.932Z,16
2024-03-01T05:56:03.990Z,16
2024-03-01T05:58:04.108Z,15
2024-03-01T06:00:07.135Z,16
2024-03-01T06:02:04.741Z,16
2024-03-01T06:03:03.543Z,15
2024-03-01T06:04:03.634Z,16
2024-03-01T06:05:04.183Z,17
2024-03-01T06:07:04.483Z,15
2024-03-01T06:08:04.336Z,15
2024-03-01T06:10:03.848Z,16
2024-03-01T06:11:03.930Z,14
2024-03-01T06:12:03.682Z,15
2024-03-01T06:13:04.078Z,17
2024-03-01T06:15:04.430Z,15
2024-03-01T06:17:03.387Z,15
2024-03-01T06:18:03.632Z,15
2024-03-01T06:19:03.842Z,14
2024-03-01T06:20:04.647Z,17
2024-03-01T06:22:03.500Z,15
2024-03-01T06:23:03.275Z,15
2024-03-01T06:24:03.057Z,16
2024-03-01T06:25:10.613Z,15
2024-03-01T06:27:03.616Z,16
2024-03-01T06:28:04.199Z,15
2024-03-01T06:30:04.549Z,15
2024-03-01T06:32:03.600Z,15
2024-03-01T06:33:03.656Z,15
2024-03-01T06:34:03.778Z,15
2024-03-01T06:35:04.183Z,20
2024-03-01T06:37:03.727Z,17
2024-03-01T06:38:04.323Z,16
2024-03-01T06:39:03.755Z,16
2024-03-01T06:40:07.706Z,17
2024-03-01T06:42:03.703Z,15
2024-03-01T06:43:03.643Z,15
2024-03-01T06:44:03.465Z,16
2024-03-01T06:45:03.973Z,17
2024-03-01T06:46:04.076Z,16
2024-03-01T06:47:23.298Z,15
2024-03-01T06:49:03.532Z,15
2024-03-01T06:50:03.869Z,15
2024-03-01T06:51:03.925Z,17
2024-03-01T06:52:04.184Z,15
2024-03-01T06:54:03.101Z,17
2024-03-01T06:55:03.758Z,17
2024-03-01T06:56:03.790Z,14
2024-03-01T06:57:03.718Z,14
2024-03-01T06:58:03.835Z,15
2024-03-01T06:59:03.839Z,16
2024-03-01T07:00:04.501Z,15
2024-03-01T07:02:03.956Z,14
2024-03-01T07:03:03.973Z,14
2024-03-01T07:05:04.855Z,16
2024-03-01T07:07:03.955Z,17
2024-03-01T07:08:04.079Z,15
2024-03-01T07:10:04.904Z,14
2024-03-01T07:12:04.125Z,16
2024-03-01T07:14:03.678Z,15
2024-03-01T07:15:04.114Z,15
2024-03-01T07:17:03.687Z,16
2024-03-01T07:18:03.729Z,15
2024-03-01T07:19:03.923Z,14
2024-03-01T07:20:04.663Z,15
2024-03-01T07:22:03.749Z,15
2024-03-01T07:23:03.852Z,15
2024-03-01T07:24:03.691Z,14
2024-03-01T07:25:04.332Z,15
2024-03-01T07:27:03.314Z,16
2024-03-01T07:28:03.881Z,15
2024-03-01T07:29:03.871Z,15
2024-03-01T07:30:04.312Z,14
2024-03-01T07:32:04.732Z,14
2024-03-01T07:34:03.548Z,15
2024-03-01T07:35:04.669Z,15
2024-03-01T07:37:03.943Z,16
2024-03-01T07:38:04.150Z,15
2024-03-01T07:40:04.426Z,15
2024-03-01T07:42:03.520Z,14
2024-03-01T07:43:04.308Z,14
2024-03-01T07:44:03.529Z,17
2024-03-01T07:45:03.972Z,16
2024-03-01T07:47:03.905Z,15
2024-03-01T07:48:04.206Z,15
2024-03-01T07:50:05.080Z,15
2024-03-01T07:52:03.971Z,15
2024-03-01T07:54:03.521Z,14
2024-03-01T07:55:04.570Z,16
2024-03-01T07:57:03.311Z,16
2024-03-01T07:58:03.685Z,15
2024-03-01T07:59:04.426Z,15
2024-03-01T08:00:03.908Z,15
2024-03-01T08:01:04.828Z,15
2024-03-01T08:02:03.823Z,15
2024-03-01T08:03:03.825Z,15
2024-03-01T08:04:06.313Z,15
2024-03-01T08:06:03.866Z,15
2024-03-01T08:07:03.824Z,15
2024-03-01T08:08:03.962Z,15
2024-03-01T08:10:03.992Z,15
2024-03-01T08:12:03.475Z,15
2024-03-01T08:13:03.608Z,15
2024-03-01T08:14:03.504Z,14
2024-03-01T08:15:04.455Z,14
2024-03-01T08:17:03.496Z,15
2024-03-01T08:18:08.406Z,15
2024-03-01T08:20:03.633Z,15
2024-03-01T08:21:03.920Z,14
2024-03-01T08:22:03.784Z,15
2024-03-01T08:23:03.519Z,15
2024-03-01T08:24:03.353Z,14
2024-03-01T08:25:04.241Z,14
2024-03-01T08:27:03.706Z,14
2024-03-01T08:28:03.626Z,14
2024-03-01T08:29:03.575Z,14
2024-03-01T08:30:04.353Z,14
2024-03-01T08:32:08.505Z,14
2024-03-01T08:34:03.253Z,13
2024-03-01T08:35:04.599Z,10
2024-03-01T08:37:03.693Z,9
2024-03-01T08:38:03.753Z,8
2024-03-01T08:39:03.697Z,8
2024-03-01T08:40:05.238Z,8
2024-03-01T08:42:03.553Z,8
2024-03-01T08:43:03.785Z,8
2024-03-01T08:45:04.294Z,8
2024-03-01T08:47:35.244Z,8
2024-03-01T08:48:03.931Z,7
2024-03-01T08:49:04.493Z,7
2024-03-01T08:51:03.876Z,7
2024-03-01T08:52:04.102Z,7
2024-03-01T08:53:05.065Z,7
2024-03-01T08:55:04.756Z,7
2024-03-01T08:57:03.798Z,8
2024-03-01T08:58:04.215Z,8
2024-03-01T08:59:03.438Z,12
2024-03-01T09:00:04.773Z,9
2024-03-01T09:02:04.304Z,13
2024-03-01T09:03:03.263Z,14
2024-03-01T09:04:03.557Z,10
2024-03-01T09:05:04.203Z,10
2024-03-01T09:07:03.621Z,12
2024-03-01T09:08:03.794Z,9
2024-03-01T09:09:04.047Z,7
2024-03-01T09:10:04.158Z,10
2024-03-01T09:12:03.513Z,7
2024-03-01T09:13:03.827Z,7
2024-03-01T09:14:03.740Z,7
2024-03-01T09:15:05.016Z,7
2024-03-01T09:17:04.453Z,7
2024-03-01T09:19:03.893Z,7
2024-03-01T09:20:04.777Z,7
2024-03-01T09:22:04.002Z,7
2024-03-01T09:24:03.711Z,7
2024-03-01T09:25:04.523Z,7
2024-03-01T09:27:03.662Z,7
2024-03-01T09:28:03.757Z,7
2024-03-01T09:29:03.993Z,7
2024-03-01T09:30:03.404Z,7
2024-03-01T09:31:04.060Z,7
2024-03-01T09:32:03.657Z,7
2024-03-01T09:33:03.817Z,7
2024-03-01T09:34:04.331Z,7
2024-03-01T09:36:04.022Z,7
2024-03-01T09:37:03.767Z,6
2024-03-01T09:38:03.857Z,6
2024-03-01T09:39:03.934Z,8
2024-03-01T09:40:05.185Z,7
2024-03-01T09:42:03.309Z,7
2024-03-01T09:43:03.468Z,6
2024-03-01T09:44:03.554Z,7
2024-03-01T09:45:04.125Z,6
2024-03-01T09:47:04.008Z,5
2024-03-01T09:49:04.270Z,7
2024-03-01T09:50:03.859Z,6
2024-03-01T09:52:04.274Z,7
2024-03-01T09:54:03.386Z,7
2024-03-01T09:55:04.295Z,6
2024-03-01T09:57:03.585Z,5
2024-03-01T09:58:03.838Z,5
2024-03-01T09:59:04.068Z,5
2024-03-01T10:00:03.745Z,6
2024-03-01T10:01:04.617Z,6
2024-03-01T10:04:03.712Z,7
2024-03-01T10:05:05.122Z,7
2024-03-01T10:07:03.506Z,8
2024-03-01T10:08:03.585Z,7
2024-03-01T10:09:03.693Z,7
2024-03-01T10:10:04.727Z,7
2024-03-01T10:11:03.902Z,7
2024-03-01T10:12:03.883Z,7
2024-03-01T10:13:03.961Z,7
2024-03-01T10:15:04.320Z,8
2024-03-01T10:16:03.732Z,7
2024-03-01T10:17:03.727Z,7
2024-03-01T10:18:03.847Z,8
2024-03-01T10:19:04.388Z,7
2024-03-01T10:20:04.787Z,7
2024-03-01T10:23:03.884Z,7
2024-03-01T10:24:03.026Z,7
2024-03-01T10:25:04.743Z,8
2024-03-01T10:26:04.524Z,8
2024-03-01T10:27:06.347Z,8
2024-03-01T10:29:03.110Z,9
2024-03-01T10:30:04.064Z,8
2024-03-01T10:31:04.118Z,8
2024-03-01T10:33:03.703Z,8
2024-03-01T10:34:04.000Z,8
2024-03-01T10:35:03.632Z,8
2024-03-01T10:36:03.651Z,8
2024-03-01T10:37:04.005Z,8
2024-03-01T10:39:03.911Z,7
2024-03-01T10:40:05.201Z,8
2024-03-01T10:42:03.808Z,9
2024-03-01T10:43:04.141Z,8
2024-03-01T10:44:03.243Z,8
2024-03-01T10:45:04.054Z,10
2024-03-01T10:47:20.730Z,8
2024-03-01T10:49:04.033Z,9
2024-03-01T10:50:04.467Z,7
2024-03-01T10:51:04.288Z,6
2024-03-01T10:52:04.049Z,7
2024-03-01T10:53:08.325Z,7
2024-03-01T10:55:04.976Z,6
2024-03-01T10:57:03.546Z,6
2024-03-01T10:58:03.813Z,6
2024-03-01T10:59:04.017Z,6
2024-03-01T11:00:10.663Z,6
2024-03-01T11:02:05.359Z,7
2024-03-01T11:03:03.914Z,7
2024-03-01T11:04:05.578Z,7
2024-03-01T11:07:05.322Z,7
2024-03-01T11:09:05.179Z,6
2024-03-01T11:10:05.949Z,6
2024-03-01T11:11:04.686Z,6
2024-03-01T11:12:05.502Z,6
2024-03-01T11:13:05.371Z,6
2024-03-01T11:14:05.226Z,6
2024-03-01T11:15:05.779Z,8
2024-03-01T11:16:04.878Z,8
2024-03-01T11:17:05.199Z,6
2024-03-01T11:20:06.034Z,8
2024-03-01T11:22:03.761Z,7
2024-03-01T11:23:04.656Z,6
2024-03-01T11:24:04.134Z,8
2024-03-01T11:26:03.672Z,7
2024-03-01T11:27:03.796Z,6
2024-03-01T11:28:03.956Z,7
2024-03-01T11:29:08.997Z,7
2024-03-01T11:31:04.189Z,7
2024-03-01T11:32:03.284Z,6
2024-03-01T11:33:04.357Z,6
2024-03-01T11:34:03.521Z,6
2024-03-01T11:35:04.457Z,6
2024-03-01T11:36:03.606Z,6
2024-03-01T11:37:03.957Z,6
2024-03-01T11:38:03.283Z,6
2024-03-01T11:39:03.723Z,7
2024-03-01T11:40:04.879Z,6
2024-03-01T11:42:03.964Z,7
2024-03-01T11:44:04.062Z,7
2024-03-01T11:45:03.486Z,7
2024-03-01T11:46:03.733Z,7
2024-03-01T11:48:04.095Z,7
2024-03-01T11:49:03.027Z,6
2024-03-01T11:50:03.658Z,6
2024-03-01T11:51:03.773Z,6
2024-03-01T11:52:04.017Z,6
2024-03-01T11:54:04.049Z,7
2024-03-01T11:55:05.166Z,6
2024-03-01T11:57:03.768Z,6
2024-03-01T11:58:03.827Z,6
2024-03-01T11:59:03.875Z,6
2024-03-01T12:00:05.550Z,6
2024-03-01T12:02:04.181Z,6
2024-03-01T12:04:03.141Z,6
2024-03-01T12:05:05.326Z,6
2024-03-01T12:06:03.262Z,6
2024-03-01T12:07:03.693Z,6
2024-03-01T12:08:05.227Z,6
2024-03-01T12:10:05.197Z,6
2024-03-01T12:12:03.675Z,6
2024-03-01T12:13:04.558Z,6
2024-03-01T12:14:03.503Z,5
2024-03-01T12:15:04.229Z,6
2024-03-01T12:17:03.410Z,5
2024-03-01T12:18:03.588Z,5
2024-03-01T12:19:03.949Z,5
2024-03-01T12:20:03.292Z,5
2024-03-01T12:21:03.842Z,6
2024-03-01T12:22:04.470Z,6
2024-03-01T12:24:03.509Z,5
2024-03-01T12:25:04.451Z,5
2024-03-01T12:26:03.366Z,5
2024-03-01T12:27:03.795Z,6
2024-03-01T12:28:04.338Z,6
2024-03-01T12:30:03.774Z,6
2024-03-01T12:31:03.224Z,5
2024-03-01T12:32:03.479Z,5
2024-03-01T12:33:03.720Z,5
2024-03-01T12:34:05.620Z,5
2024-03-01T12:37:03.549Z,5
2024-03-01T12:39:03.596Z,6
2024-03-01T12:40:04.464Z,6
2024-03-01T12:41:03.766Z,6
2024-03-01T12:42:04.274Z,6
2024-03-01T12:44:03.965Z,5
2024-03-01T12:46:03.943Z,5
2024-03-01T12:47:04.012Z,5
2024-03-01T12:49:03.825Z,5
2024-03-01T12:50:04.890Z,5
2024-03-01T12:52:03.379Z,5
2024-03-01T12:53:03.556Z,6
2024-03-01T12:54:03.618Z,6
2024-03-01T12:55:04.516Z,5
2024-03-01T12:57:03.219Z,6
2024-03-01T12:58:03.828Z,6
2024-03-01T12:59:04.329Z,6
2024-03-01T13:00:04.310Z,5
2024-03-01T13:02:03.938Z,5
2024-03-01T13:03:04.171Z,5
2024-03-01T13:05:04.282Z,5
2024-03-01T13:06:03.136Z,5
2024-03-01T13:07:04.103Z,6
2024-03-01T13:09:03.011Z,6
2024-03-01T13:10:04.099Z,6
2024-03-01T13:11:07.632Z,6
2024-03-01T13:13:04.265Z,5
2024-03-01T13:15:03.821Z,5
2024-03-01T13:16:04.583Z,5
2024-03-01T13:17:03.594Z,5
2024-03-01T13:18:03.758Z,5
2024-03-01T13:19:04.258Z,5
2024-03-01T13:22:03.530Z,5
2024-03-01T13:23:03.755Z,6
2024-03-01T13:24:04.121Z,6
2024-03-01T13:25:03.669Z,6
2024-03-01T13:26:04.518Z,5
2024-03-01T13:28:03.718Z,5
2024-03-01T13:30:04.712Z,5
2024-03-01T13:31:04.709Z,5
2024-03-01T13:33:03.709Z,5
2024-03-01T13:34:03.939Z,5
2024-03-01T13:35:04.862Z,5
2024-03-01T13:36:04.453Z,5
2024-03-01T13:38:03.729Z,5
2024-03-01T13:39:03.838Z,5
2024-03-01T13:40:04.824Z,5
2024-03-01T13:41:03.802Z,5
2024-03-01T13:42:03.925Z,4
2024-03-01T13:43:04.208Z,4
2024-03-01T13:44:03.392Z,4
2024-03-01T13:45:04.170Z,5
2024-03-01T13:47:03.136Z,5
2024-03-01T13:48:03.286Z,5
2024-03-01T13:49:03.453Z,5
2024-03-01T13:50:04.241Z,5
2024-03-01T13:52:03.530Z,5
2024-03-01T13:53:03.557Z,5
2024-03-01T13:54:03.644Z,5
2024-03-01T13:55:04.636Z,5
2024-03-01T13:57:04.130Z,4
2024-03-01T13:58:03.554Z,4
2024-03-01T13:59:03.600Z,5
2024-03-01T14:00:05.481Z,5
2024-03-01T14:02:05.182Z,5
2024-03-01T14:04:03.597Z,5
2024-03-01T14:05:04.316Z,6
2024-03-01T14:07:03.761Z,6
2024-03-01T14:08:03.858Z,5
2024-03-01T14:09:03.864Z,6
2024-03-01T14:10:04.233Z,6
2024-03-01T14:12:03.103Z,6
2024-03-01T14:13:10.938Z,6
2024-03-01T14:15:03.806Z,6
2024-03-01T14:16:05.173Z,6
2024-03-01T14:18:03.749Z,6
2024-03-01T14:19:04.098Z,6
2024-03-01T14:20:03.906Z,6
2024-03-01T14:21:03.808Z,7
2024-03-01T14:22:04.442Z,8
2024-03-01T14:23:03.507Z,7
2024-03-01T14:24:04.207Z,7
2024-03-01T14:25:04.438Z,7
2024-03-01T14:26:04.154Z,6
2024-03-01T14:28:03.896Z,7
2024-03-01T14:29:04.100Z,7
2024-03-01T14:30:04.369Z,6
2024-03-01T14:31:03.682Z,7
2024-03-01T14:32:04.315Z,7
2024-03-01T14:34:03.727Z,7
2024-03-01T14:35:05.172Z,6
2024-03-01T14:37:03.539Z,6
2024-03-01T14:38:03.573Z,7
2024-03-01T14:39:03.543Z,7
2024-03-01T14:40:04.901Z,6
2024-03-01T14:41:04.389Z,7
2024-03-01T14:43:04.091Z,6
2024-03-01T14:45:03.893Z,7
2024-03-01T14:46:04.505Z,7
2024-03-01T14:48:03.696Z,8
2024-03-01T14:49:04.207Z,8
2024-03-01T14:50:04.595Z,7
2024-03-01T14:52:04.045Z,6
2024-03-01T14:53:03.112Z,6
2024-03-01T14:54:03.370Z,6
2024-03-01T14:55:04.449Z,6
2024-03-01T14:56:03.632Z,6
2024-03-01T14:57:03.893Z,7
2024-03-01T14:58:04.769Z,7
2024-03-01T14:59:03.568Z,7
2024-03-01T15:00:04.740Z,7
2024-03-01T15:02:04.624Z,7
2024-03-01T15:03:03.927Z,7
2024-03-01T15:04:04.358Z,7
2024-03-01T15:05:05.147Z,7
2024-03-01T15:07:03.787Z,6
2024-03-01T15:08:04.108Z,6
2024-03-01T15:10:05.064Z,7
2024-03-01T15:12:03.705Z,6
2024-03-01T15:13:03.992Z,6
2024-03-01T15:14:03.224Z,7
2024-03-01T15:15:04.036Z,7
2024-03-01T15:17:03.435Z,7
2024-03-01T15:18:04.590Z,7
2024-03-01T15:19:03.503Z,7
2024-03-01T15:20:04.464Z,7
2024-03-01T15:22:03.602Z,7
2024-03-01T15:23:03.702Z,6
2024-03-01T15:24:03.942Z,6
2024-03-01T15:25:05.272Z,7
2024-03-01T15:27:03.167Z,6
2024-03-01T15:28:03.219Z,6
2024-03-01T15:29:03.245Z,5
2024-03-01T15:30:05.009Z,5
2024-03-01T15:32:03.190Z,4
2024-03-01T15:33:03.511Z,4
2024-03-01T15:34:03.920Z,4
2024-03-01T15:35:04.648Z,4
2024-03-01T15:37:03.977Z,4
2024-03-01T15:39:03.955Z,4
2024-03-01T15:40:05.159Z,4
2024-03-01T15:42:03.385Z,4
2024-03-01T15:43:03.372Z,4
2024-03-01T15:44:03.517Z,4
2024-03-01T15:45:04.215Z,4
2024-03-01T15:47:04.219Z,4
2024-03-01T15:48:03.397Z,4
2024-03-01T15:49:03.994Z,4
2024-03-01T15:50:03.961Z,4
2024-03-01T15:51:04.062Z,4
2024-03-01T15:53:03.236Z,5
2024-03-01T15:54:03.305Z,4
2024-03-01T15:55:04.457Z,4
2024-03-01T15:56:03.729Z,4
2024-03-01T15:57:03.957Z,3
2024-03-01T15:58:04.469Z,3
2024-03-01T15:59:03.336Z,4
2024-03-01T16:00:04.772Z,4
2024-03-01T16:02:04.209Z,4
2024-03-01T16:03:03.172Z,4
2024-03-01T16:04:03.246Z,4
2024-03-01T16:05:04.185Z,4
2024-03-01T16:06:03.733Z,4
2024-03-01T16:07:04.126Z,4
2024-03-01T16:08:03.530Z,4
2024-03-01T16:09:03.870Z,4
2024-03-01T16:10:05.120Z,3
2024-03-01T16:12:03.323Z,3
2024-03-01T16:13:03.999Z,3
2024-03-01T16:14:02.793Z,4
2024-03-01T16:15:04.961Z,4
2024-03-01T16:17:04.108Z,4
2024-03-01T16:18:03.037Z,5
2024-03-01T16:19:03.165Z,4
2024-03-01T16:20:03.770Z,4
2024-03-01T16:21:04.012Z,4
2024-03-01T16:23:03.294Z,5
2024-03-01T16:24:03.282Z,5
2024-03-01T16:25:04.547Z,5
2024-03-01T16:27:03.561Z,4
2024-03-01T16:28:03.539Z,4
2024-03-01T16:29:03.372Z,4
2024-03-01T16:30:04.061Z,4
2024-03-01T16:32:03.954Z,4
2024-03-01T16:33:04.181Z,4
2024-03-01T16:35:04.139Z,4
2024-03-01T16:36:03.690Z,4
2024-03-01T16:37:03.975Z,4
2024-03-01T16:38:03.038Z,4
2024-03-01T16:39:03.250Z,4
2024-03-01T16:40:05.023Z,4
2024-03-01T16:42:03.951Z,4
2024-03-01T16:43:04.345Z,5
2024-03-01T16:45:04.408Z,4
2024-03-01T16:47:03.400Z,4
2024-03-01T16:48:03.601Z,4
2024-03-01T16:49:04.002Z,4
2024-03-01T16:50:04.084Z,4
2024-03-01T16:52:03.376Z,4
2024-03-01T16:53:03.399Z,4
2024-03-01T16:54:03.365Z,5
2024-03-01T16:55:04.611Z,4
2024-03-01T16:56:03.791Z,4
2024-03-01T16:57:03.936Z,4
2024-03-01T16:58:04.301Z,5
2024-03-01T16:59:03.227Z,5
2024-03-01T17:00:04.313Z,5
2024-03-01T17:01:05.281Z,4
2024-03-01T17:03:03.490Z,5
2024-03-01T17:04:03.911Z,5
2024-03-01T17:05:04.839Z,5
2024-03-01T17:06:04.064Z,5
2024-03-01T17:08:03.459Z,5
2024-03-01T17:10:04.497Z,5
2024-03-01T17:11:04.338Z,5
2024-03-01T17:12:03.960Z,5
2024-03-01T17:13:04.636Z,5
2024-03-01T17:14:03.561Z,5
2024-03-01T17:15:04.615Z,5
2024-03-01T17:17:03.513Z,5
2024-03-01T17:18:03.955Z,5
2024-03-01T17:19:04.441Z,5
2024-03-01T17:20:03.908Z,5
2024-03-01T17:21:04.055Z,5
2024-03-01T17:23:03.337Z,5
2024-03-01T17:24:03.552Z,5
2024-03-01T17:25:04.445Z,5
2024-03-01T17:27:03.389Z,5
2024-03-01T17:28:03.449Z,5
2024-03-01T17:29:03.513Z,5
2024-03-01T17:30:04.136Z,5
2024-03-01T17:31:03.743Z,5
2024-03-01T17:32:03.838Z,5
2024-03-01T17:33:04.516Z,4
2024-03-01T17:34:03.482Z,4
2024-03-01T17:35:04.350Z,4
2024-03-01T17:37:03.509Z,4
2024-03-01T17:38:03.615Z,4
2024-03-01T17:39:03.871Z,4
2024-03-01T17:40:05.572Z,3
2024-03-01T17:42:03.539Z,3
2024-03-01T17:43:04.369Z,4
2024-03-01T17:45:04.557Z,3
2024-03-01T17:47:03.793Z,3
2024-03-01T17:48:04.347Z,3
2024-03-01T17:50:04.106Z,4
2024-03-01T17:52:03.873Z,4
2024-03-01T17:53:03.825Z,4
2024-03-01T17:54:04.180Z,3
2024-03-01T17:55:04.288Z,4
2024-03-01T17:57:03.934Z,4
2024-03-01T17:59:03.898Z,4
2024-03-01T18:00:04.886Z,5
2024-03-01T18:02:05.440Z,4
2024-03-01T18:04:03.531Z,3
2024-03-01T18:05:04.663Z,3
2024-03-01T18:06:03.751Z,3
2024-03-01T18:07:04.252Z,4
2024-03-01T18:08:03.082Z,3
2024-03-01T18:10:04.042Z,4
2024-03-01T18:11:03.123Z,3
2024-03-01T18:12:03.588Z,4
2024-03-01T18:13:03.625Z,4
2024-03-01T18:14:03.498Z,4
2024-03-01T18:15:05.423Z,4
2024-03-01T18:17:04.160Z,4
2024-03-01T18:19:03.526Z,4
2024-03-01T18:20:04.706Z,5
2024-03-01T18:22:04.029Z,4
2024-03-01T18:24:03.790Z,5
2024-03-01T18:25:04.942Z,4
2024-03-01T18:26:04.078Z,4
2024-03-01T18:28:04.615Z,4
2024-03-01T18:29:03.474Z,4
2024-03-01T18:30:04.360Z,5
2024-03-01T18:31:04.154Z,4
2024-03-01T18:33:03.367Z,6
2024-03-01T18:34:03.558Z,5
2024-03-01T18:35:04.746Z,5
2024-03-01T18:36:04.654Z,5
2024-03-01T18:38:03.766Z,6
2024-03-01T18:39:03.812Z,5
2024-03-01T18:40:05.154Z,5
2024-03-01T18:42:03.335Z,4
2024-03-01T18:43:03.570Z,4
2024-03-01T18:44:03.648Z,4
2024-03-01T18:45:04.538Z,5
2024-03-01T18:47:03.643Z,5
2024-03-01T18:48:04.538Z,5
2024-03-01T18:49:04.034Z,4
2024-03-01T18:50:04.387Z,4
2024-03-01T18:51:03.410Z,5
2024-03-01T18:52:03.737Z,5
2024-03-01T18:53:03.805Z,5
2024-03-01T18:54:05.757Z,5
2024-03-01T18:57:03.222Z,6
2024-03-01T18:58:03.455Z,5
2024-03-01T18:59:04.054Z,5
2024-03-01T19:00:06.821Z,4
2024-03-01T19:01:10.009Z,4
2024-03-01T19:02:14.185Z,4
2024-03-01T19:04:05.634Z,4
2024-03-01T19:05:06.350Z,4
2024-03-01T19:06:05.554Z,5
2024-03-01T19:07:05.800Z,4
2024-03-01T19:08:05.936Z,4
2024-03-01T19:09:05.185Z,4
2024-03-01T19:10:05.362Z,4
2024-03-01T19:11:05.709Z,4
2024-03-01T19:13:09.773Z,5
2024-03-01T19:15:05.659Z,4
2024-03-01T19:16:04.616Z,5
2024-03-01T19:18:03.749Z,5
2024-03-01T19:19:04.679Z,5
2024-03-01T19:20:04.730Z,4
2024-03-01T19:22:04.005Z,5
2024-03-01T19:24:03.810Z,4
2024-03-01T19:25:05.481Z,5
2024-03-01T19:27:03.698Z,5
2024-03-01T19:28:03.943Z,5
2024-03-01T19:30:03.642Z,6
2024-03-01T19:31:03.145Z,5
2024-03-01T19:32:03.673Z,5
2024-03-01T19:33:03.849Z,4
2024-03-01T19:34:04.288Z,4
2024-03-01T19:35:04.425Z,6
2024-03-01T19:36:04.063Z,5
2024-03-01T19:38:03.297Z,5
2024-03-01T19:39:03.434Z,6
2024-03-01T19:40:04.361Z,6
2024-03-01T19:42:03.360Z,5
2024-03-01T19:43:03.726Z,5
2024-03-01T19:44:03.811Z,6
2024-03-01T19:45:04.705Z,5
2024-03-01T19:47:03.660Z,5
2024-03-01T19:48:03.741Z,6
2024-03-01T19:49:04.129Z,5
2024-03-01T19:50:04.915Z,5
2024-03-01T19:52:03.961Z,5
2024-03-01T19:54:03.655Z,6
2024-03-01T19:55:04.749Z,5
2024-03-01T19:56:04.228Z,5
2024-03-01T19:58:03.896Z,5
2024-03-01T19:59:04.163Z,5
2024-03-01T20:00:04.974Z,5
2024-03-01T20:02:03.778Z,5
2024-03-01T20:03:04.303Z,5
2024-03-01T20:05:03.746Z,5
2024-03-01T20:06:03.856Z,5
2024-03-01T20:07:04.193Z,5